sensor_id;sensor_type;location;lat;lon;timestamp;noise_LAeq;noise_LA_min;noise_LA_max;noise_LA01;noise_LA95
41518;Laerm;27249;48.094;-1.690;2023-09-19T00:01:14;43.80;41.38;46.66;;
41518;Laerm;27249;48.094;-1.690;2023-09-19T00:03:39;48.04;41.38;65.00;;
41518;Laerm;27249;48.094;-1.690;2023-09-19T00:06:07;47.64;41.46;67.44;;
41518;Laerm;27249;48.094;-1.690;2023-09-19T00:08:33;46.36;41.68;57.69;;
41518;Laerm;27249;48.094;-1.690;2023-09-19T00:10:58;47.26;41.89;61.82;;
41518;Laerm;27249;48.094;-1.690;2023-09-19T00:13:31;44.14;41.68;46.69;;
41518;Laerm;27249;48.094;-1.690;2023-09-19T00:15:56;48.02;41.14;69.83;;
41518;Laerm;27249;48.094;-1.690;2023-09-19T00:18:24;46.13;41.82;57.76;;
41518;Laerm;27249;48.094;-1.690;2023-09-19T00:20:53;46.37;41.61;54.63;;
41518;Laerm;27249;48.094;-1.690;2023-09-19T00:23:21;43.91;41.61;49.94;;
41518;Laerm;27249;48.094;-1.690;2023-09-19T00:25:47;45.78;41.89;58.03;;
41518;Laerm;27249;48.094;-1.690;2023-09-19T00:28:12;44.43;41.89;49.80;;
41518;Laerm;27249;48.094;-1.690;2023-09-19T00:30:37;49.67;41.75;60.23;;
41518;Laerm;27249;48.094;-1.690;2023-09-19T00:33:06;46.75;41.46;58.08;;
41518;Laerm;27249;48.094;-1.690;2023-09-19T00:35:32;46.37;41.30;62.89;;
41518;Laerm;27249;48.094;-1.690;2023-09-19T00:37:58;47.75;42.22;61.64;;
41518;Laerm;27249;48.094;-1.690;2023-09-19T00:40:23;45.93;41.75;67.36;;
41518;Laerm;27249;48.094;-1.690;2023-09-19T00:42:49;46.81;41.82;57.60;;
41518;Laerm;27249;48.094;-1.690;2023-09-19T00:45:16;43.99;41.68;47.72;;
41518;Laerm;27249;48.094;-1.690;2023-09-19T00:47:49;50.70;40.71;67.00;;
41518;Laerm;27249;48.094;-1.690;2023-09-19T00:50:15;44.42;41.75;47.83;;
41518;Laerm;27249;48.094;-1.690;2023-09-19T00:52:42;44.59;42.09;50.15;;
41518;Laerm;27249;48.094;-1.690;2023-09-19T00:55:09;45.70;41.89;60.03;;
41518;Laerm;27249;48.094;-1.690;2023-09-19T00:57:35;44.91;41.75;65.86;;
41518;Laerm;27249;48.094;-1.690;2023-09-19T01:00:02;48.51;41.61;59.96;;
41518;Laerm;27249;48.094;-1.690;2023-09-19T01:02:31;48.71;41.82;62.99;;
41518;Laerm;27249;48.094;-1.690;2023-09-19T01:04:57;44.01;41.38;51.99;;
41518;Laerm;27249;48.094;-1.690;2023-09-19T01:07:22;46.91;41.96;58.85;;
41518;Laerm;27249;48.094;-1.690;2023-09-19T01:09:48;47.87;42.03;61.37;;
41518;Laerm;27249;48.094;-1.690;2023-09-19T01:12:13;47.84;42.53;57.41;;
41518;Laerm;27249;48.094;-1.690;2023-09-19T01:14:44;45.67;41.96;52.61;;
41518;Laerm;27249;48.094;-1.690;2023-09-19T01:17:14;46.73;42.41;61.44;;
41518;Laerm;27249;48.094;-1.690;2023-09-19T01:22:23;44.24;41.96;47.52;;
41518;Laerm;27249;48.094;-1.690;2023-09-19T01:30:17;45.06;41.89;66.24;;
41518;Laerm;27249;48.094;-1.690;2023-09-19T01:32:43;46.54;41.46;60.42;;
41518;Laerm;27249;48.094;-1.690;2023-09-19T01:35:11;44.00;41.53;52.44;;
41518;Laerm;27249;48.094;-1.690;2023-09-19T01:37:39;46.22;41.96;56.77;;
41518;Laerm;27249;48.094;-1.690;2023-09-19T01:40:06;45.73;41.82;53.94;;
41518;Laerm;27249;48.094;-1.690;2023-09-19T01:45:24;44.14;42.16;47.59;;
41518;Laerm;27249;48.094;-1.690;2023-09-19T01:47:52;44.71;42.35;48.84;;
41518;Laerm;27249;48.094;-1.690;2023-09-19T01:52:53;44.95;42.82;49.21;;
41518;Laerm;27249;48.094;-1.690;2023-09-19T01:55:20;46.72;42.16;57.44;;
41518;Laerm;27249;48.094;-1.690;2023-09-19T01:57:51;48.39;42.47;58.00;;
41518;Laerm;27249;48.094;-1.690;2023-09-19T02:00:18;48.29;42.53;60.10;;
41518;Laerm;27249;48.094;-1.690;2023-09-19T02:02:45;45.42;42.71;51.84;;
41518;Laerm;27249;48.094;-1.690;2023-09-19T02:05:12;46.47;42.59;56.73;;
41518;Laerm;27249;48.094;-1.690;2023-09-19T02:07:38;46.26;42.47;54.16;;
41518;Laerm;27249;48.094;-1.690;2023-09-19T02:10:06;48.41;42.98;58.23;;
41518;Laerm;27249;48.094;-1.690;2023-09-19T02:12:32;46.57;42.65;57.16;;
41518;Laerm;27249;48.094;-1.690;2023-09-19T02:14:58;44.62;42.88;48.15;;
41518;Laerm;27249;48.094;-1.690;2023-09-19T02:17:24;48.87;42.35;63.69;;
41518;Laerm;27249;48.094;-1.690;2023-09-19T02:19:51;53.57;42.59;69.29;;
41518;Laerm;27249;48.094;-1.690;2023-09-19T02:22:17;45.66;43.04;52.90;;
41518;Laerm;27249;48.094;-1.690;2023-09-19T02:24:42;47.31;43.14;60.30;;
41518;Laerm;27249;48.094;-1.690;2023-09-19T02:27:08;46.98;42.59;61.07;;
41518;Laerm;27249;48.094;-1.690;2023-09-19T02:29:33;51.75;43.39;63.22;;
41518;Laerm;27249;48.094;-1.690;2023-09-19T02:31:59;47.92;43.04;56.61;;
41518;Laerm;27249;48.094;-1.690;2023-09-19T02:34:25;51.40;43.14;60.78;;
41518;Laerm;27249;48.094;-1.690;2023-09-19T02:36:50;44.79;42.71;48.92;;
41518;Laerm;27249;48.094;-1.690;2023-09-19T02:39:17;51.33;43.24;61.44;;
41518;Laerm;27249;48.094;-1.690;2023-09-19T02:41:42;49.08;43.49;60.47;;
41518;Laerm;27249;48.094;-1.690;2023-09-19T02:44:07;54.61;43.72;65.85;;
41518;Laerm;27249;48.094;-1.690;2023-09-19T02:46:34;48.47;43.49;60.01;;
41518;Laerm;27249;48.094;-1.690;2023-09-19T02:49:01;49.55;44.39;58.03;;
41518;Laerm;27249;48.094;-1.690;2023-09-19T02:51:26;50.72;44.39;60.91;;
41518;Laerm;27249;48.094;-1.690;2023-09-19T02:53:51;51.12;44.39;59.94;;
41518;Laerm;27249;48.094;-1.690;2023-09-19T02:56:19;48.50;43.49;58.09;;
41518;Laerm;27249;48.094;-1.690;2023-09-19T02:58:45;48.00;43.68;56.62;;
41518;Laerm;27249;48.094;-1.690;2023-09-19T03:01:10;48.97;43.34;58.95;;
41518;Laerm;27249;48.094;-1.690;2023-09-19T03:03:38;49.20;43.44;62.56;;
41518;Laerm;27249;48.094;-1.690;2023-09-19T03:06:07;45.46;43.29;48.54;;
41518;Laerm;27249;48.094;-1.690;2023-09-19T03:08:34;50.55;43.49;62.75;;
41518;Laerm;27249;48.094;-1.690;2023-09-19T03:11:01;47.81;43.54;55.69;;
41518;Laerm;27249;48.094;-1.690;2023-09-19T03:13:27;50.50;43.14;63.97;;
41518;Laerm;27249;48.094;-1.690;2023-09-19T03:15:54;48.94;43.24;59.13;;
41518;Laerm;27249;48.094;-1.690;2023-09-19T03:18:21;50.14;42.65;62.90;;
41518;Laerm;27249;48.094;-1.690;2023-09-19T03:20:55;49.83;43.63;62.75;;
41518;Laerm;27249;48.094;-1.690;2023-09-19T03:23:21;51.15;43.29;61.22;;
41518;Laerm;27249;48.094;-1.690;2023-09-19T03:25:46;46.32;43.09;57.64;;
41518;Laerm;27249;48.094;-1.690;2023-09-19T03:28:12;45.39;43.29;53.55;;
41518;Laerm;27249;48.094;-1.690;2023-09-19T03:30:38;44.94;42.65;47.65;;
41518;Laerm;27249;48.094;-1.690;2023-09-19T03:33:03;50.08;43.14;62.68;;
41518;Laerm;27249;48.094;-1.690;2023-09-19T03:35:29;51.11;43.29;63.08;;
41518;Laerm;27249;48.094;-1.690;2023-09-19T03:37:54;52.12;43.77;65.64;;
41518;Laerm;27249;48.094;-1.690;2023-09-19T03:40:20;51.62;43.44;63.84;;
41518;Laerm;27249;48.094;-1.690;2023-09-19T03:42:46;52.63;43.72;62.55;;
41518;Laerm;27249;48.094;-1.690;2023-09-19T03:45:13;50.56;43.99;60.25;;
41518;Laerm;27249;48.094;-1.690;2023-09-19T03:47:41;52.09;44.15;62.15;;
41518;Laerm;27249;48.094;-1.690;2023-09-19T03:50:06;46.87;43.44;53.27;;
41518;Laerm;27249;48.094;-1.690;2023-09-19T03:52:36;47.89;42.76;58.08;;
41518;Laerm;27249;48.094;-1.690;2023-09-19T03:55:01;52.55;43.99;61.77;;
41518;Laerm;27249;48.094;-1.690;2023-09-19T03:57:29;50.62;43.86;59.60;;
41518;Laerm;27249;48.094;-1.690;2023-09-19T03:59:55;48.66;43.19;60.98;;
41518;Laerm;27249;48.094;-1.690;2023-09-19T04:02:21;48.93;43.90;56.50;;
41518;Laerm;27249;48.094;-1.690;2023-09-19T04:04:50;52.80;44.51;59.98;;
41518;Laerm;27249;48.094;-1.690;2023-09-19T04:07:15;54.85;44.31;68.04;;
41518;Laerm;27249;48.094;-1.690;2023-09-19T04:09:40;48.92;44.51;57.78;;
41518;Laerm;27249;48.094;-1.690;2023-09-19T04:12:07;52.12;44.47;61.66;;
41518;Laerm;27249;48.094;-1.690;2023-09-19T04:14:34;51.56;44.80;63.33;;
41518;Laerm;27249;48.094;-1.690;2023-09-19T04:16:59;51.62;44.43;60.13;;
41518;Laerm;27249;48.094;-1.690;2023-09-19T04:19:25;53.73;45.20;61.75;;
41518;Laerm;27249;48.094;-1.690;2023-09-19T04:21:50;51.24;44.19;60.50;;
41518;Laerm;27249;48.094;-1.690;2023-09-19T04:24:16;52.03;44.76;62.24;;
41518;Laerm;27249;48.094;-1.690;2023-09-19T04:26:41;51.50;45.69;59.50;;
41518;Laerm;27249;48.094;-1.690;2023-09-19T04:29:07;51.52;45.20;62.77;;
41518;Laerm;27249;48.094;-1.690;2023-09-19T04:31:36;56.41;46.34;70.05;;
41518;Laerm;27249;48.094;-1.690;2023-09-19T04:34:05;53.48;45.94;63.86;;
41518;Laerm;27249;48.094;-1.690;2023-09-19T04:36:30;54.90;46.66;66.84;;
41518;Laerm;27249;48.094;-1.690;2023-09-19T04:38:55;51.71;45.48;60.10;;
41518;Laerm;27249;48.094;-1.690;2023-09-19T04:41:21;52.84;45.91;60.66;;
41518;Laerm;27249;48.094;-1.690;2023-09-19T04:43:47;54.87;46.02;65.28;;
41518;Laerm;27249;48.094;-1.690;2023-09-19T04:46:12;54.08;45.91;64.01;;
41518;Laerm;27249;48.094;-1.690;2023-09-19T04:48:39;51.93;45.27;68.43;;
41518;Laerm;27249;48.094;-1.690;2023-09-19T04:51:04;53.40;45.72;61.27;;
41518;Laerm;27249;48.094;-1.690;2023-09-19T04:53:30;55.24;45.72;65.84;;
41518;Laerm;27249;48.094;-1.690;2023-09-19T04:55:55;53.70;45.42;63.55;;
41518;Laerm;27249;48.094;-1.690;2023-09-19T04:58:21;55.42;46.64;64.99;;
41518;Laerm;27249;48.094;-1.690;2023-09-19T05:00:46;53.81;46.06;61.70;;
41518;Laerm;27249;48.094;-1.690;2023-09-19T05:03:11;52.94;46.52;60.36;;
41518;Laerm;27249;48.094;-1.690;2023-09-19T05:05:37;54.67;48.02;62.96;;
41518;Laerm;27249;48.094;-1.690;2023-09-19T05:08:03;54.89;48.96;63.12;;
41518;Laerm;27249;48.094;-1.690;2023-09-19T05:10:30;54.74;47.91;61.82;;
41518;Laerm;27249;48.094;-1.690;2023-09-19T05:12:55;54.90;48.26;62.49;;
41518;Laerm;27249;48.094;-1.690;2023-09-19T05:15:21;55.81;48.81;61.27;;
41518;Laerm;27249;48.094;-1.690;2023-09-19T05:17:52;54.74;49.19;60.29;;
41518;Laerm;27249;48.094;-1.690;2023-09-19T05:20:20;57.07;48.99;75.16;;
41518;Laerm;27249;48.094;-1.690;2023-09-19T05:25:27;57.57;49.40;67.76;;
41518;Laerm;27249;48.094;-1.690;2023-09-19T05:27:54;56.21;51.00;64.16;;
41518;Laerm;27249;48.094;-1.690;2023-09-19T05:30:20;56.04;49.06;63.02;;
41518;Laerm;27249;48.094;-1.690;2023-09-19T05:32:45;55.44;47.54;63.32;;
41518;Laerm;27249;48.094;-1.690;2023-09-19T05:35:10;58.58;50.47;68.31;;
41518;Laerm;27249;48.094;-1.690;2023-09-19T05:37:38;57.06;49.79;67.36;;
41518;Laerm;27249;48.094;-1.690;2023-09-19T05:40:03;56.59;49.27;64.23;;
41518;Laerm;27249;48.094;-1.690;2023-09-19T05:42:32;57.01;48.21;64.73;;
41518;Laerm;27249;48.094;-1.690;2023-09-19T05:44:57;58.05;51.06;64.39;;
41518;Laerm;27249;48.094;-1.690;2023-09-19T05:47:23;57.45;51.24;68.03;;
41518;Laerm;27249;48.094;-1.690;2023-09-19T05:49:50;57.65;51.06;64.08;;
41518;Laerm;27249;48.094;-1.690;2023-09-19T05:52:15;56.70;51.85;62.78;;
41518;Laerm;27249;48.094;-1.690;2023-09-19T05:54:42;57.34;52.28;64.17;;
41518;Laerm;27249;48.094;-1.690;2023-09-19T05:57:08;56.53;51.54;63.78;;
41518;Laerm;27249;48.094;-1.690;2023-09-19T05:59:33;56.88;50.55;63.45;;
41518;Laerm;27249;48.094;-1.690;2023-09-19T06:01:59;61.19;51.95;74.50;;
41518;Laerm;27249;48.094;-1.690;2023-09-19T06:04:24;58.09;53.86;63.72;;
41518;Laerm;27249;48.094;-1.690;2023-09-19T06:06:50;57.75;51.83;66.47;;
41518;Laerm;27249;48.094;-1.690;2023-09-19T06:09:16;59.17;52.56;69.04;;
41518;Laerm;27249;48.094;-1.690;2023-09-19T06:11:42;57.71;53.20;62.42;;
41518;Laerm;27249;48.094;-1.690;2023-09-19T06:14:07;56.95;50.38;65.91;;
41518;Laerm;27249;48.094;-1.690;2023-09-19T06:16:33;57.40;50.58;69.98;;
41518;Laerm;27249;48.094;-1.690;2023-09-19T06:18:58;57.01;50.34;65.64;;
41518;Laerm;27249;48.094;-1.690;2023-09-19T06:21:29;56.99;52.13;64.10;;
41518;Laerm;27249;48.094;-1.690;2023-09-19T06:23:54;63.15;51.44;83.42;;
41518;Laerm;27249;48.094;-1.690;2023-09-19T06:26:20;58.37;52.09;70.79;;
41518;Laerm;27249;48.094;-1.690;2023-09-19T06:28:45;56.93;51.74;62.59;;
41518;Laerm;27249;48.094;-1.690;2023-09-19T06:31:10;57.16;51.39;66.00;;
41518;Laerm;27249;48.094;-1.690;2023-09-19T06:33:38;57.47;51.82;66.79;;
41518;Laerm;27249;48.094;-1.690;2023-09-19T06:36:08;55.86;50.04;63.40;;
41518;Laerm;27249;48.094;-1.690;2023-09-19T06:38:33;57.34;50.25;64.02;;
41518;Laerm;27249;48.094;-1.690;2023-09-19T06:41:02;56.99;51.80;65.93;;
41518;Laerm;27249;48.094;-1.690;2023-09-19T06:43:29;57.33;52.29;63.79;;
41518;Laerm;27249;48.094;-1.690;2023-09-19T06:45:56;57.24;51.66;63.16;;
41518;Laerm;27249;48.094;-1.690;2023-09-19T06:48:23;58.11;52.47;64.34;;
41518;Laerm;27249;48.094;-1.690;2023-09-19T06:50:50;58.44;54.04;64.65;;
41518;Laerm;27249;48.094;-1.690;2023-09-19T06:53:15;58.42;52.85;73.69;;
41518;Laerm;27249;48.094;-1.690;2023-09-19T06:55:41;58.11;52.63;67.26;;
41518;Laerm;27249;48.094;-1.690;2023-09-19T06:58:08;57.54;51.14;65.45;;
41518;Laerm;27249;48.094;-1.690;2023-09-19T07:00:35;57.91;52.77;66.22;;
41518;Laerm;27249;48.094;-1.690;2023-09-19T07:03:06;57.95;53.18;62.77;;
41518;Laerm;27249;48.094;-1.690;2023-09-19T07:05:38;57.52;52.08;62.56;;
41518;Laerm;27249;48.094;-1.690;2023-09-19T07:08:04;57.07;51.05;63.58;;
41518;Laerm;27249;48.094;-1.690;2023-09-19T07:10:31;56.98;50.92;64.28;;
41518;Laerm;27249;48.094;-1.690;2023-09-19T07:13:00;58.18;50.87;66.30;;
41518;Laerm;27249;48.094;-1.690;2023-09-19T07:15:27;58.72;51.37;66.35;;
41518;Laerm;27249;48.094;-1.690;2023-09-19T07:17:52;57.65;48.87;67.40;;
41518;Laerm;27249;48.094;-1.690;2023-09-19T07:20:19;58.80;51.35;73.10;;
41518;Laerm;27249;48.094;-1.690;2023-09-19T07:22:44;58.37;53.71;71.09;;
41518;Laerm;27249;48.094;-1.690;2023-09-19T07:25:10;57.89;52.50;64.96;;
41518;Laerm;27249;48.094;-1.690;2023-09-19T07:27:35;57.21;50.15;75.84;;
41518;Laerm;27249;48.094;-1.690;2023-09-19T07:30:00;58.70;53.45;64.38;;
41518;Laerm;27249;48.094;-1.690;2023-09-19T07:32:25;57.25;50.93;62.57;;
41518;Laerm;27249;48.094;-1.690;2023-09-19T07:34:51;58.11;50.70;72.74;;
41518;Laerm;27249;48.094;-1.690;2023-09-19T07:37:16;57.59;50.59;64.95;;
41518;Laerm;27249;48.094;-1.690;2023-09-19T07:39:41;57.39;49.58;63.45;;
41518;Laerm;27249;48.094;-1.690;2023-09-19T07:42:06;56.84;49.77;63.36;;
41518;Laerm;27249;48.094;-1.690;2023-09-19T07:44:32;57.36;50.05;67.13;;
41518;Laerm;27249;48.094;-1.690;2023-09-19T07:46:57;57.88;49.97;67.44;;
41518;Laerm;27249;48.094;-1.690;2023-09-19T07:49:22;56.80;50.61;65.94;;
41518;Laerm;27249;48.094;-1.690;2023-09-19T07:51:47;57.11;50.05;72.13;;
41518;Laerm;27249;48.094;-1.690;2023-09-19T07:54:13;55.76;51.02;64.41;;
41518;Laerm;27249;48.094;-1.690;2023-09-19T07:56:39;57.48;51.89;63.46;;
41518;Laerm;27249;48.094;-1.690;2023-09-19T07:59:04;56.34;48.71;69.27;;
41518;Laerm;27249;48.094;-1.690;2023-09-19T08:01:30;56.75;48.46;67.58;;
41518;Laerm;27249;48.094;-1.690;2023-09-19T08:03:55;57.73;50.28;64.47;;
41518;Laerm;27249;48.094;-1.690;2023-09-19T08:06:20;58.58;49.53;68.88;;
41518;Laerm;27249;48.094;-1.690;2023-09-19T08:08:45;56.18;48.90;63.87;;
41518;Laerm;27249;48.094;-1.690;2023-09-19T08:11:11;56.68;47.26;64.61;;
41518;Laerm;27249;48.094;-1.690;2023-09-19T08:13:40;58.87;51.63;78.01;;
41518;Laerm;27249;48.094;-1.690;2023-09-19T08:16:08;57.51;48.88;67.42;;
41518;Laerm;27249;48.094;-1.690;2023-09-19T08:18:33;56.39;50.11;62.55;;
41518;Laerm;27249;48.094;-1.690;2023-09-19T08:20:58;56.90;49.71;62.23;;
41518;Laerm;27249;48.094;-1.690;2023-09-19T08:23:25;59.81;50.26;75.15;;
41518;Laerm;27249;48.094;-1.690;2023-09-19T08:25:50;60.32;53.76;67.84;;
41518;Laerm;27249;48.094;-1.690;2023-09-19T08:28:20;56.78;49.11;66.30;;
41518;Laerm;27249;48.094;-1.690;2023-09-19T08:30:49;57.55;50.98;65.24;;
41518;Laerm;27249;48.094;-1.690;2023-09-19T08:33:14;56.55;50.27;65.87;;
41518;Laerm;27249;48.094;-1.690;2023-09-19T08:35:42;56.63;48.37;65.29;;
41518;Laerm;27249;48.094;-1.690;2023-09-19T08:38:08;57.76;50.29;65.38;;
41518;Laerm;27249;48.094;-1.690;2023-09-19T08:40:38;58.07;51.03;67.37;;
41518;Laerm;27249;48.094;-1.690;2023-09-19T08:43:08;58.83;51.53;68.99;;
41518;Laerm;27249;48.094;-1.690;2023-09-19T08:45:34;55.54;50.39;62.48;;
41518;Laerm;27249;48.094;-1.690;2023-09-19T08:50:31;58.01;50.33;65.49;;
41518;Laerm;27249;48.094;-1.690;2023-09-19T08:53:01;56.03;50.13;67.05;;
41518;Laerm;27249;48.094;-1.690;2023-09-19T08:55:31;56.08;49.11;65.88;;
41518;Laerm;27249;48.094;-1.690;2023-09-19T08:58:02;55.78;46.40;63.31;;
41518;Laerm;27249;48.094;-1.690;2023-09-19T09:00:28;54.63;48.81;59.11;;
41518;Laerm;27249;48.094;-1.690;2023-09-19T09:02:54;56.29;48.69;63.67;;
41518;Laerm;27249;48.094;-1.690;2023-09-19T09:05:20;55.50;49.07;60.98;;
41518;Laerm;27249;48.094;-1.690;2023-09-19T09:07:48;56.68;51.06;63.34;;
41518;Laerm;27249;48.094;-1.690;2023-09-19T09:10:15;56.34;48.36;69.23;;
41518;Laerm;27249;48.094;-1.690;2023-09-19T09:12:41;56.45;50.31;65.04;;
41518;Laerm;27249;48.094;-1.690;2023-09-19T09:15:09;57.36;48.83;65.64;;
41518;Laerm;27249;48.094;-1.690;2023-09-19T09:17:36;56.90;49.55;64.91;;
41518;Laerm;27249;48.094;-1.690;2023-09-19T09:20:02;58.98;48.00;77.77;;
41518;Laerm;27249;48.094;-1.690;2023-09-19T09:22:28;58.30;50.95;66.54;;
41518;Laerm;27249;48.094;-1.690;2023-09-19T09:24:54;57.53;50.19;75.40;;
41518;Laerm;27249;48.094;-1.690;2023-09-19T09:27:23;55.69;49.65;67.40;;
41518;Laerm;27249;48.094;-1.690;2023-09-19T09:29:49;56.32;48.16;64.98;;
41518;Laerm;27249;48.094;-1.690;2023-09-19T09:32:24;56.34;50.27;63.32;;
41518;Laerm;27249;48.094;-1.690;2023-09-19T09:34:51;56.31;46.73;64.39;;
41518;Laerm;27249;48.094;-1.690;2023-09-19T09:37:17;57.52;49.66;80.28;;
41518;Laerm;27249;48.094;-1.690;2023-09-19T09:39:51;57.04;49.54;66.77;;
41518;Laerm;27249;48.094;-1.690;2023-09-19T09:42:30;56.43;48.78;68.52;;
41518;Laerm;27249;48.094;-1.690;2023-09-19T09:47:56;56.83;49.50;67.17;;
41518;Laerm;27249;48.094;-1.690;2023-09-19T09:50:28;56.23;50.26;65.10;;
41518;Laerm;27249;48.094;-1.690;2023-09-19T09:53:28;57.38;52.30;65.58;;
41518;Laerm;27249;48.094;-1.690;2023-09-19T09:56:18;58.62;51.89;71.01;;
41518;Laerm;27249;48.094;-1.690;2023-09-19T09:58:50;56.99;48.78;68.98;;
41518;Laerm;27249;48.094;-1.690;2023-09-19T10:01:17;56.06;47.95;63.23;;
41518;Laerm;27249;48.094;-1.690;2023-09-19T10:03:43;57.31;50.76;66.68;;
41518;Laerm;27249;48.094;-1.690;2023-09-19T10:06:12;56.97;51.28;63.31;;
41518;Laerm;27249;48.094;-1.690;2023-09-19T10:14:08;57.02;52.20;67.43;;
41518;Laerm;27249;48.094;-1.690;2023-09-19T10:16:35;56.83;50.78;66.24;;
41518;Laerm;27249;48.094;-1.690;2023-09-19T10:19:04;57.55;51.85;70.91;;
41518;Laerm;27249;48.094;-1.690;2023-09-19T10:21:31;56.74;51.09;75.56;;
41518;Laerm;27249;48.094;-1.690;2023-09-19T10:23:58;57.01;49.69;70.22;;
41518;Laerm;27249;48.094;-1.690;2023-09-19T10:26:25;58.54;51.93;71.62;;
41518;Laerm;27249;48.094;-1.690;2023-09-19T10:28:51;56.76;48.98;75.28;;
41518;Laerm;27249;48.094;-1.690;2023-09-19T10:31:18;57.15;50.82;72.43;;
41518;Laerm;27249;48.094;-1.690;2023-09-19T10:33:44;55.07;48.31;69.13;;
41518;Laerm;27249;48.094;-1.690;2023-09-19T10:36:11;57.95;49.75;78.88;;
41518;Laerm;27249;48.094;-1.690;2023-09-19T10:38:37;57.15;51.50;74.50;;
41518;Laerm;27249;48.094;-1.690;2023-09-19T10:41:05;58.41;50.66;70.81;;
41518;Laerm;27249;48.094;-1.690;2023-09-19T10:43:31;56.69;50.72;66.29;;
41518;Laerm;27249;48.094;-1.690;2023-09-19T10:45:57;55.55;50.16;69.70;;
41518;Laerm;27249;48.094;-1.690;2023-09-19T10:48:25;55.47;48.51;66.57;;
41518;Laerm;27249;48.094;-1.690;2023-09-19T10:50:58;57.61;51.22;69.93;;
41518;Laerm;27249;48.094;-1.690;2023-09-19T10:53:29;57.47;49.24;69.16;;
41518;Laerm;27249;48.094;-1.690;2023-09-19T10:55:58;57.08;47.20;78.26;;
41518;Laerm;27249;48.094;-1.690;2023-09-19T10:58:28;57.05;50.95;66.07;;
41518;Laerm;27249;48.094;-1.690;2023-09-19T11:00:54;57.13;48.95;74.03;;
41518;Laerm;27249;48.094;-1.690;2023-09-19T11:03:21;56.18;48.18;71.67;;
41518;Laerm;27249;48.094;-1.690;2023-09-19T11:08:26;55.83;48.63;67.26;;
41518;Laerm;27249;48.094;-1.690;2023-09-19T11:10:51;55.66;48.91;63.76;;
41518;Laerm;27249;48.094;-1.690;2023-09-19T11:13:23;55.56;48.13;66.67;;
41518;Laerm;27249;48.094;-1.690;2023-09-19T11:24:27;57.83;47.22;74.70;;
41518;Laerm;27249;48.094;-1.690;2023-09-19T11:26:50;56.48;47.24;71.71;;
41518;Laerm;27249;48.094;-1.690;2023-09-19T11:29:26;56.21;50.09;71.13;;
41518;Laerm;27249;48.094;-1.690;2023-09-19T11:31:52;57.29;48.76;74.98;;
41518;Laerm;27249;48.094;-1.690;2023-09-19T11:39:37;56.61;49.96;70.25;;
41518;Laerm;27249;48.094;-1.690;2023-09-19T11:42:30;59.89;48.96;76.01;;
41518;Laerm;27249;48.094;-1.690;2023-09-19T11:44:48;57.13;47.96;79.08;;
41518;Laerm;27249;48.094;-1.690;2023-09-19T11:47:17;59.17;49.93;75.06;;
41518;Laerm;27249;48.094;-1.690;2023-09-19T11:49:44;59.33;49.62;78.89;;
41518;Laerm;27249;48.094;-1.690;2023-09-19T11:52:09;56.25;49.51;67.08;;
41518;Laerm;27249;48.094;-1.690;2023-09-19T11:54:38;61.73;52.07;83.10;;
41518;Laerm;27249;48.094;-1.690;2023-09-19T11:57:06;57.63;48.48;75.64;;
41518;Laerm;27249;48.094;-1.690;2023-09-19T11:59:33;57.88;51.11;77.05;;
41518;Laerm;27249;48.094;-1.690;2023-09-19T12:02:04;59.12;51.62;76.22;;
41518;Laerm;27249;48.094;-1.690;2023-09-19T12:07:05;55.45;49.92;72.85;;
41518;Laerm;27249;48.094;-1.690;2023-09-19T12:09:35;59.08;49.58;76.97;;
41518;Laerm;27249;48.094;-1.690;2023-09-19T12:12:01;55.49;49.25;73.07;;
41518;Laerm;27249;48.094;-1.690;2023-09-19T12:14:26;56.53;48.23;73.19;;
41518;Laerm;27249;48.094;-1.690;2023-09-19T12:16:53;55.54;48.85;74.38;;
41518;Laerm;27249;48.094;-1.690;2023-09-19T12:19:20;55.06;47.74;71.83;;
41518;Laerm;27249;48.094;-1.690;2023-09-19T12:24:23;56.77;51.47;68.81;;
41518;Laerm;27249;48.094;-1.690;2023-09-19T12:26:51;57.25;50.54;70.88;;
41518;Laerm;27249;48.094;-1.690;2023-09-19T12:29:20;56.95;49.59;71.35;;
41518;Laerm;27249;48.094;-1.690;2023-09-19T12:34:19;67.34;49.28;90.97;;
41518;Laerm;27249;48.094;-1.690;2023-09-19T12:36:45;57.83;50.22;69.85;;
41518;Laerm;27249;48.094;-1.690;2023-09-19T12:39:10;56.45;48.70;68.49;;
41518;Laerm;27249;48.094;-1.690;2023-09-19T12:41:36;57.19;50.04;76.20;;
41518;Laerm;27249;48.094;-1.690;2023-09-19T12:44:02;53.89;45.63;66.60;;
41518;Laerm;27249;48.094;-1.690;2023-09-19T12:46:33;55.49;48.46;61.62;;
41518;Laerm;27249;48.094;-1.690;2023-09-19T12:51:42;56.22;50.14;72.33;;
41518;Laerm;27249;48.094;-1.690;2023-09-19T12:54:08;56.72;48.36;71.21;;
41518;Laerm;27249;48.094;-1.690;2023-09-19T12:56:42;58.49;48.96;78.78;;
41518;Laerm;27249;48.094;-1.690;2023-09-19T12:59:11;58.81;49.93;78.53;;
41518;Laerm;27249;48.094;-1.690;2023-09-19T13:01:38;59.76;47.98;76.49;;
41518;Laerm;27249;48.094;-1.690;2023-09-19T13:04:15;58.77;50.78;80.39;;
41518;Laerm;27249;48.094;-1.690;2023-09-19T13:06:44;56.54;49.47;66.73;;
41518;Laerm;27249;48.094;-1.690;2023-09-19T13:09:14;55.34;48.13;70.36;;
41518;Laerm;27249;48.094;-1.690;2023-09-19T13:11:39;57.23;50.49;69.91;;
41518;Laerm;27249;48.094;-1.690;2023-09-19T13:14:14;55.41;49.77;70.55;;
41518;Laerm;27249;48.094;-1.690;2023-09-19T13:22:38;57.56;50.50;69.35;;
41518;Laerm;27249;48.094;-1.690;2023-09-19T13:25:07;56.59;48.54;68.82;;
41518;Laerm;27249;48.094;-1.690;2023-09-19T13:27:33;56.35;47.86;73.88;;
41518;Laerm;27249;48.094;-1.690;2023-09-19T13:29:59;57.12;51.17;74.73;;
41518;Laerm;27249;48.094;-1.690;2023-09-19T13:32:25;55.54;47.60;69.21;;
41518;Laerm;27249;48.094;-1.690;2023-09-19T13:34:50;57.77;51.02;72.16;;
41518;Laerm;27249;48.094;-1.690;2023-09-19T13:37:16;58.83;48.32;79.27;;
41518;Laerm;27249;48.094;-1.690;2023-09-19T13:39:43;58.76;50.77;75.81;;
41518;Laerm;27249;48.094;-1.690;2023-09-19T13:42:12;57.94;50.87;76.94;;
41518;Laerm;27249;48.094;-1.690;2023-09-19T13:44:37;57.03;48.28;69.75;;
41518;Laerm;27249;48.094;-1.690;2023-09-19T13:47:03;57.82;48.96;66.67;;
41518;Laerm;27249;48.094;-1.690;2023-09-19T13:49:34;56.55;50.35;69.25;;
41518;Laerm;27249;48.094;-1.690;2023-09-19T13:52:00;56.02;49.15;72.98;;
41518;Laerm;27249;48.094;-1.690;2023-09-19T13:54:28;58.50;50.36;73.27;;
41518;Laerm;27249;48.094;-1.690;2023-09-19T13:56:53;54.77;46.76;64.18;;
41518;Laerm;27249;48.094;-1.690;2023-09-19T13:59:18;57.73;51.85;70.15;;
41518;Laerm;27249;48.094;-1.690;2023-09-19T14:04:32;59.16;49.91;77.26;;
41518;Laerm;27249;48.094;-1.690;2023-09-19T14:06:59;60.07;51.24;85.86;;
41518;Laerm;27249;48.094;-1.690;2023-09-19T14:09:25;60.56;49.43;84.57;;
41518;Laerm;27249;48.094;-1.690;2023-09-19T14:11:51;62.92;49.06;86.11;;
41518;Laerm;27249;48.094;-1.690;2023-09-19T14:14:18;57.37;51.64;70.43;;
41518;Laerm;27249;48.094;-1.690;2023-09-19T14:16:43;55.74;50.47;69.85;;
41518;Laerm;27249;48.094;-1.690;2023-09-19T14:19:08;55.98;49.32;70.78;;
41518;Laerm;27249;48.094;-1.690;2023-09-19T14:21:34;56.31;46.71;69.48;;
41518;Laerm;27249;48.094;-1.690;2023-09-19T14:24:01;56.35;49.46;69.39;;
41518;Laerm;27249;48.094;-1.690;2023-09-19T14:26:26;56.05;49.88;67.65;;
41518;Laerm;27249;48.094;-1.690;2023-09-19T14:28:51;57.83;50.46;77.58;;
41518;Laerm;27249;48.094;-1.690;2023-09-19T14:31:16;58.33;51.36;79.33;;
41518;Laerm;27249;48.094;-1.690;2023-09-19T14:33:42;57.77;50.45;77.99;;